createdAt,value
2019-02-16T00:01:59.808Z,12.03
2019-02-16T00:04:26.653Z,12.60
2019-02-16T00:06:53.595Z,11.60
2019-02-16T00:09:20.334Z,10.07
2019-02-16T00:11:47.779Z,10.07
2019-02-16T00:14:14.638Z,10.03
2019-02-16T00:16:41.480Z,9.80
2019-02-16T00:19:08.938Z,12.27
2019-02-16T00:21:35.803Z,10.97
2019-02-16T00:24:02.623Z,9.37
2019-02-16T00:26:29.467Z,11.00
2019-02-16T00:28:56.307Z,10.80
2019-02-16T00:31:23.869Z,9.10
2019-02-16T00:33:50.781Z,9.90
2019-02-16T00:36:17.653Z,9.30
2019-02-16T00:38:44.662Z,9.53
2019-02-16T00:41:11.401Z,9.23
2019-02-16T00:43:38.477Z,8.57
2019-02-16T00:46:06.339Z,8.83
2019-02-16T00:48:33.856Z,7.83
2019-02-16T00:51:02.850Z,9.77
2019-02-16T00:53:29.670Z,8.20
2019-02-16T00:55:57.011Z,9.70
2019-02-16T00:58:25.934Z,8.20
2019-02-16T01:00:52.779Z,8.70
2019-02-16T01:03:19.743Z,10.87
2019-02-16T01:05:46.576Z,8.23
2019-02-16T01:08:14.007Z,8.77
2019-02-16T01:10:40.711Z,10.50
2019-02-16T01:13:08.805Z,9.83
2019-02-16T01:15:36.515Z,9.23
2019-02-16T01:18:04.842Z,9.10
2019-02-16T01:20:31.664Z,10.43
2019-02-16T01:22:58.376Z,9.57
2019-02-16T01:25:25.049Z,10.60
2019-02-16T01:27:53.484Z,9.77
2019-02-16T01:30:20.214Z,9.73
2019-02-16T01:32:48.081Z,9.43
2019-02-16T01:35:15.517Z,12.47
2019-02-16T01:37:42.260Z,11.63
2019-02-16T01:40:09.032Z,10.73
2019-02-16T01:42:35.973Z,12.33
2019-02-16T01:45:03.340Z,15.07
2019-02-16T01:47:30.053Z,12.60
2019-02-16T01:49:56.725Z,11.17
2019-02-16T01:52:24.920Z,12.93
2019-02-16T01:54:52.359Z,15.83
2019-02-16T01:57:19.210Z,15.90
2019-02-16T01:59:46.738Z,14.67
2019-02-16T02:02:13.495Z,14.33
2019-02-16T02:04:40.459Z,13.60
2019-02-16T02:07:09.039Z,13.37
2019-02-16T02:09:36.554Z,12.53
2019-02-16T02:12:04.927Z,13.43
2019-02-16T02:14:32.086Z,15.07
2019-02-16T02:16:58.961Z,14.97
2019-02-16T02:19:26.470Z,15.60
2019-02-16T02:21:53.484Z,15.43
2019-02-16T02:24:20.210Z,16.10
2019-02-16T02:26:47.492Z,14.63
2019-02-16T02:29:14.189Z,16.53
2019-02-16T02:31:41.630Z,14.90
2019-02-16T02:34:11.374Z,14.70
2019-02-16T02:36:38.859Z,16.90
2019-02-16T02:39:05.845Z,16.20
2019-02-16T02:41:32.711Z,17.07
2019-02-16T02:43:59.452Z,13.13
2019-02-16T02:46:26.208Z,15.33
2019-02-16T02:48:54.585Z,14.37
2019-02-16T02:51:21.412Z,19.23
2019-02-16T02:53:48.241Z,16.07
2019-02-16T02:56:14.942Z,14.27
2019-02-16T02:58:41.637Z,14.63
2019-02-16T03:01:08.832Z,13.77
2019-02-16T03:03:38.077Z,14.47
2019-02-16T03:06:04.815Z,16.10
2019-02-16T03:08:31.715Z,12.53
2019-02-16T03:10:58.388Z,12.93
2019-02-16T03:13:25.641Z,14.57
2019-02-16T03:15:52.394Z,14.17
2019-02-16T03:18:22.196Z,13.00
2019-02-16T03:20:49.352Z,16.33
2019-02-16T03:23:16.522Z,14.60
2019-02-16T03:25:56.289Z,13.13
2019-02-16T03:28:30.636Z,14.70
2019-02-16T03:31:10.723Z,15.53
2019-02-16T03:33:43.306Z,11.97
2019-02-16T03:36:14.034Z,12.60
2019-02-16T03:38:45.808Z,14.67
2019-02-16T03:41:12.484Z,12.33
2019-02-16T03:43:40.358Z,13.60
2019-02-16T03:46:07.347Z,11.37
2019-02-16T03:48:34.465Z,13.07
2019-02-16T03:51:02.885Z,13.30
2019-02-16T03:53:29.656Z,12.50
2019-02-16T03:55:57.281Z,13.20
2019-02-16T03:58:24.031Z,13.53
2019-02-16T04:00:50.758Z,13.20
2019-02-16T04:03:17.895Z,12.57
2019-02-16T04:05:47.501Z,14.00
2019-02-16T04:08:14.192Z,12.63
2019-02-16T04:10:42.156Z,12.03
2019-02-16T04:13:09.670Z,13.57
2019-02-16T04:15:36.658Z,11.33
2019-02-16T04:18:03.883Z,11.67
2019-02-16T04:20:34.846Z,13.80
2019-02-16T04:23:02.319Z,15.77
2019-02-16T04:25:29.059Z,12.23
2019-02-16T04:27:57.045Z,12.90
2019-02-16T04:30:23.725Z,14.13
2019-02-16T04:32:50.927Z,15.13
2019-02-16T04:35:17.923Z,11.33
2019-02-16T04:40:22.549Z,12.03
2019-02-16T04:42:49.234Z,12.77
2019-02-16T04:45:16.656Z,12.23
2019-02-16T04:47:44.548Z,13.43
2019-02-16T04:50:11.206Z,12.37
2019-02-16T04:52:39.607Z,12.20
2019-02-16T04:55:06.835Z,11.77
2019-02-16T04:57:33.801Z,11.33
2019-02-16T05:00:01.521Z,13.13
2019-02-16T05:02:29.358Z,12.77
2019-02-16T05:04:56.079Z,11.23
2019-02-16T05:07:23.147Z,14.40
2019-02-16T05:09:50.416Z,14.40
2019-02-16T05:12:17.357Z,10.83
2019-02-16T05:14:46.165Z,13.77
2019-02-16T05:17:13.887Z,11.13
2019-02-16T05:19:40.652Z,12.67
2019-02-16T05:22:07.765Z,14.40
2019-02-16T05:24:36.082Z,11.23
2019-02-16T05:27:02.867Z,12.17
2019-02-16T05:29:37.710Z,13.17
2019-02-16T05:32:05.007Z,10.93
2019-02-16T05:34:32.441Z,10.17
2019-02-16T05:36:59.777Z,11.97
2019-02-16T05:39:27.450Z,11.20
2019-02-16T05:41:54.112Z,14.50
2019-02-16T05:44:20.952Z,11.27
2019-02-16T05:46:48.698Z,11.77
2019-02-16T05:49:15.360Z,10.50
2019-02-16T05:51:42.432Z,11.63
2019-02-16T05:54:09.925Z,11.07
2019-02-16T05:56:36.608Z,12.00
2019-02-16T05:59:03.572Z,10.03
2019-02-16T06:01:31.720Z,13.47
2019-02-16T06:03:58.457Z,10.67
2019-02-16T06:06:25.570Z,10.87
2019-02-16T06:08:52.326Z,10.80
2019-02-16T06:11:26.427Z,13.40
2019-02-16T06:13:53.171Z,11.60
2019-02-16T06:16:19.926Z,12.03
2019-02-16T06:18:46.633Z,10.83
2019-02-16T06:21:13.909Z,11.73
2019-02-16T06:23:41.784Z,11.80
2019-02-16T06:26:09.283Z,10.77
2019-02-16T06:28:36.171Z,10.63
2019-02-16T06:31:02.990Z,10.70
2019-02-16T06:33:30.525Z,12.13
2019-02-16T06:35:58.971Z,13.23
2019-02-16T06:38:28.731Z,14.17
2019-02-16T06:40:55.405Z,12.37
2019-02-16T06:43:22.729Z,11.63
2019-02-16T06:45:52.258Z,10.53
2019-02-16T06:48:25.345Z,12.07
2019-02-16T06:50:52.309Z,11.97
2019-02-16T06:53:20.006Z,11.93
2019-02-16T06:55:47.653Z,11.10
2019-02-16T06:58:14.439Z,11.33
2019-02-16T07:00:41.879Z,12.50
2019-02-16T07:03:09.576Z,13.20
2019-02-16T07:05:36.361Z,11.17
2019-02-16T07:08:03.135Z,12.33
2019-02-16T07:10:29.800Z,14.23
2019-02-16T07:12:57.949Z,11.17
2019-02-16T07:15:24.989Z,10.23
2019-02-16T07:17:53.208Z,13.70
2019-02-16T07:20:20.013Z,11.23
2019-02-16T07:22:47.602Z,13.03
2019-02-16T07:25:14.448Z,13.23
2019-02-16T07:27:43.176Z,9.67
2019-02-16T07:30:10.236Z,12.63
2019-02-16T07:32:37.011Z,9.93
2019-02-16T07:35:04.083Z,10.70
2019-02-16T07:37:31.327Z,9.70
2019-02-16T07:39:58.060Z,10.87
2019-02-16T07:42:25.035Z,10.97
2019-02-16T07:44:54.614Z,9.43
2019-02-16T07:47:22.367Z,9.60
2019-02-16T07:49:54.008Z,11.20
2019-02-16T07:52:26.613Z,9.43
2019-02-16T07:54:53.506Z,9.13
2019-02-16T07:57:25.419Z,8.00
2019-02-16T07:59:56.151Z,8.60
2019-02-16T08:02:34.604Z,8.47
2019-02-16T08:05:03.110Z,7.90
2019-02-16T08:10:37.577Z,9.88
2019-02-16T08:13:14.264Z,9.00
2019-02-16T08:15:42.029Z,8.73
2019-02-16T08:18:10.715Z,8.50
2019-02-16T08:20:41.449Z,8.37
2019-02-16T08:23:12.389Z,9.03
2019-02-16T08:28:34.334Z,9.95
2019-02-16T08:31:06.094Z,8.87
2019-02-16T08:33:37.691Z,11.87
2019-02-16T08:36:07.201Z,8.27
2019-02-16T08:41:37.298Z,9.30
2019-02-16T08:44:04.136Z,8.27
2019-02-16T08:46:40.399Z,7.70
2019-02-16T08:49:13.592Z,8.13
2019-02-16T08:51:42.051Z,7.80
2019-02-16T08:54:10.960Z,8.40
2019-02-16T08:56:58.163Z,7.63
2019-02-16T08:59:25.763Z,8.33
2019-02-16T09:01:52.517Z,10.90
2019-02-16T09:04:20.024Z,8.00
2019-02-16T09:09:55.307Z,9.05
2019-02-16T09:12:22.968Z,7.37
2019-02-16T09:15:00.667Z,7.67
2019-02-16T09:17:31.091Z,8.10
2019-02-16T09:19:57.817Z,7.33
2019-02-16T09:22:40.154Z,9.40
2019-02-16T09:25:12.851Z,7.50
2019-02-16T09:27:55.517Z,7.50
2019-02-16T09:30:26.307Z,8.60
2019-02-16T09:32:59.867Z,7.80
2019-02-16T09:35:27.635Z,8.13
2019-02-16T09:37:56.368Z,8.30
2019-02-16T09:40:23.076Z,7.27
2019-02-16T09:42:49.908Z,7.90
2019-02-16T09:45:20.692Z,8.20
2019-02-16T09:47:49.524Z,7.07
2019-02-16T09:50:18.287Z,8.30
2019-02-16T09:52:47.653Z,8.10
2019-02-16T09:55:16.349Z,7.80
2019-02-16T10:00:40.912Z,9.15
2019-02-16T10:03:13.594Z,7.13
2019-02-16T10:05:40.537Z,12.17
2019-02-16T10:08:13.524Z,7.73
2019-02-16T10:10:42.209Z,7.83
2019-02-16T10:13:11.917Z,8.37
2019-02-16T10:15:42.449Z,9.27
2019-02-16T10:21:15.153Z,8.70
2019-02-16T10:23:43.841Z,7.17
2019-02-16T10:26:17.747Z,7.47
2019-02-16T10:31:57.303Z,8.93
2019-02-16T10:34:34.901Z,10.30
2019-02-16T10:37:02.630Z,8.03
2019-02-16T10:39:36.073Z,7.67
2019-02-16T10:42:05.873Z,7.50
2019-02-16T10:44:41.368Z,7.30
2019-02-16T10:47:12.146Z,6.73
2019-02-16T10:49:46.053Z,6.77
2019-02-16T10:52:15.391Z,7.37
2019-02-16T10:54:46.973Z,7.83
2019-02-16T10:57:13.768Z,9.13
2019-02-16T10:59:54.522Z,7.30
2019-02-16T11:02:24.911Z,7.57
2019-02-16T11:04:52.550Z,7.57
2019-02-16T11:07:23.391Z,7.33
2019-02-16T11:09:51.063Z,9.43
2019-02-16T11:12:33.629Z,8.37
2019-02-16T11:15:00.597Z,8.47
2019-02-16T11:17:31.222Z,8.20
2019-02-16T11:19:59.879Z,11.20
2019-02-16T11:22:31.646Z,7.67
2019-02-16T11:25:14.363Z,9.67
2019-02-16T11:27:46.124Z,7.53
2019-02-16T11:30:13.926Z,10.60
2019-02-16T11:32:40.692Z,8.77
2019-02-16T11:35:23.394Z,9.80
2019-02-16T11:37:55.302Z,10.00
2019-02-16T11:40:29.724Z,8.37
2019-02-16T11:42:59.646Z,9.63
2019-02-16T11:45:39.077Z,9.67
2019-02-16T11:48:20.870Z,8.27
2019-02-16T11:53:48.043Z,10.40
2019-02-16T11:56:14.885Z,9.60
2019-02-16T11:58:57.294Z,10.67
2019-02-16T12:01:33.969Z,10.27
2019-02-16T12:04:07.774Z,9.83
2019-02-16T12:06:39.740Z,8.37
2019-02-16T12:09:07.607Z,10.27
2019-02-16T12:11:51.103Z,9.57
2019-02-16T12:14:33.443Z,11.57
2019-02-16T12:17:03.244Z,11.90
2019-02-16T12:22:25.411Z,11.88
2019-02-16T12:25:09.890Z,12.13
2019-02-16T12:27:37.628Z,11.53
2019-02-16T12:30:28.843Z,13.07
2019-02-16T12:32:56.708Z,13.80
2019-02-16T12:35:23.553Z,14.30
2019-02-16T12:37:52.139Z,14.10
2019-02-16T12:40:18.977Z,13.27
2019-02-16T12:42:46.767Z,13.70
2019-02-16T12:45:13.587Z,12.53
2019-02-16T12:47:59.286Z,14.30
2019-02-16T12:50:32.265Z,12.57
2019-02-16T12:53:07.397Z,13.20
2019-02-16T12:58:29.917Z,15.85
2019-02-16T13:01:02.948Z,14.20
2019-02-16T13:03:34.599Z,13.57
2019-02-16T13:06:07.486Z,12.83
2019-02-16T13:08:34.327Z,15.57
2019-02-16T13:11:02.816Z,17.67
2019-02-16T13:13:34.576Z,14.30
2019-02-16T13:16:12.015Z,15.27
2019-02-16T13:18:39.929Z,13.70
2019-02-16T13:21:08.391Z,18.03
2019-02-16T13:23:45.808Z,16.93
2019-02-16T13:26:12.847Z,15.07
2019-02-16T13:28:50.543Z,14.60
2019-02-16T13:31:18.281Z,15.83
2019-02-16T13:33:50.696Z,14.43
2019-02-16T13:36:21.285Z,14.20
2019-02-16T13:38:54.243Z,14.30
2019-02-16T13:41:30.858Z,15.47
2019-02-16T13:44:13.181Z,16.57
2019-02-16T13:46:41.957Z,18.80
2019-02-16T13:49:10.752Z,13.20
2019-02-16T13:51:50.491Z,14.70
2019-02-16T13:54:22.562Z,13.60
2019-02-16T13:57:08.442Z,16.63
2019-02-16T13:59:36.335Z,15.80
2019-02-16T14:04:57.554Z,16.58
2019-02-16T14:07:27.366Z,17.50
2019-02-16T14:10:00.452Z,15.33
2019-02-16T14:12:30.166Z,16.63
2019-02-16T14:14:59.874Z,17.73
2019-02-16T14:17:33.785Z,22.27
2019-02-16T14:20:00.730Z,18.67
2019-02-16T14:22:28.288Z,19.57
2019-02-16T14:24:55.231Z,20.40
2019-02-16T14:27:21.978Z,16.17
2019-02-16T14:29:48.711Z,16.80
2019-02-16T14:32:16.180Z,20.50
2019-02-16T14:34:43.015Z,17.80
2019-02-16T14:37:12.565Z,19.53
2019-02-16T14:39:39.250Z,20.40
2019-02-16T14:42:06.640Z,18.03
2019-02-16T14:44:33.352Z,21.37
2019-02-16T14:47:00.819Z,18.33
2019-02-16T14:49:27.546Z,22.63
2019-02-16T14:51:54.277Z,24.17
2019-02-16T14:54:21.796Z,17.53
2019-02-16T14:56:49.337Z,16.50
2019-02-16T14:59:16.101Z,15.30
2019-02-16T15:01:42.786Z,15.83
2019-02-16T15:04:10.187Z,19.20
2019-02-16T15:06:36.933Z,18.63
2019-02-16T15:09:05.098Z,22.77
2019-02-16T15:11:31.828Z,18.90
2019-02-16T15:13:59.823Z,24.10
2019-02-16T15:16:26.638Z,21.17
2019-02-16T15:18:53.417Z,22.37
2019-02-16T15:21:21.324Z,16.00
2019-02-16T15:23:48.625Z,19.37
2019-02-16T15:26:15.484Z,22.70
2019-02-16T15:28:42.186Z,20.73
2019-02-16T15:31:09.433Z,20.33
2019-02-16T15:33:36.326Z,21.73
2019-02-16T15:36:03.142Z,19.70
2019-02-16T15:38:30.262Z,19.77
2019-02-16T15:40:56.986Z,24.37
2019-02-16T15:43:24.112Z,22.07
2019-02-16T15:45:51.396Z,22.87
2019-02-16T15:48:18.144Z,25.67
2019-02-16T15:50:44.955Z,24.43
2019-02-16T15:53:13.385Z,24.33
2019-02-16T15:55:40.244Z,27.80
2019-02-16T15:58:07.044Z,24.37
2019-02-16T16:00:33.850Z,24.93
2019-02-16T16:03:00.598Z,26.03
2019-02-16T16:05:28.144Z,25.47
2019-02-16T16:10:56.603Z,30.40
2019-02-16T16:13:29.196Z,28.43
2019-02-16T16:15:58.134Z,28.87
2019-02-16T16:21:24.887Z,32.42
2019-02-16T16:23:53.832Z,28.53
2019-02-16T16:26:23.404Z,30.87
2019-02-16T16:31:44.202Z,32.08
2019-02-16T16:34:18.098Z,27.53
2019-02-16T16:37:01.644Z,27.70
2019-02-16T16:39:29.662Z,29.13
2019-02-16T16:41:57.533Z,23.70
2019-02-16T16:44:31.294Z,30.90
2019-02-16T16:47:05.226Z,28.47
2019-02-16T16:49:38.572Z,33.70
2019-02-16T16:52:09.425Z,34.40
2019-02-16T16:54:50.023Z,28.33
2019-02-16T16:57:26.697Z,32.53
2019-02-16T16:59:58.151Z,32.87
2019-02-16T17:02:43.378Z,34.30
2019-02-16T17:05:11.240Z,33.83
2019-02-16T17:10:36.199Z,33.63
2019-02-16T17:13:05.637Z,30.07
2019-02-16T17:15:48.081Z,29.10
2019-02-16T17:18:20.211Z,31.70
2019-02-16T17:21:02.675Z,35.87
2019-02-16T17:26:43.094Z,37.20
2019-02-16T17:29:10.667Z,30.80
2019-02-16T17:31:42.696Z,40.27
2019-02-16T17:34:29.342Z,33.10
2019-02-16T17:37:03.195Z,33.77
2019-02-16T17:42:35.514Z,35.90
2019-02-16T17:45:18.123Z,35.27
2019-02-16T17:47:51.425Z,32.97
2019-02-16T17:50:19.014Z,34.83
2019-02-16T17:52:47.107Z,30.87
2019-02-16T17:55:14.592Z,30.33
2019-02-16T17:57:57.325Z,33.33
2019-02-16T18:00:36.282Z,32.17
2019-02-16T18:03:10.244Z,37.13
2019-02-16T18:08:28.981Z,39.50
2019-02-16T18:11:11.597Z,32.97
2019-02-16T18:16:47.297Z,37.72
2019-02-16T18:19:16.836Z,35.33
2019-02-16T18:21:43.592Z,32.20
2019-02-16T18:24:28.639Z,38.50
2019-02-16T18:27:01.831Z,38.43
2019-02-16T18:29:34.964Z,38.17
2019-02-16T18:32:07.874Z,35.43
2019-02-16T18:34:40.741Z,34.50
2019-02-16T18:37:08.665Z,40.40
2019-02-16T18:39:37.383Z,33.90
2019-02-16T18:42:09.946Z,35.23
2019-02-16T18:44:42.698Z,35.07
2019-02-16T18:47:27.335Z,31.60
2019-02-16T18:52:49.488Z,42.62
2019-02-16T18:55:17.099Z,33.97
2019-02-16T19:00:51.036Z,42.10
2019-02-16T19:03:24.176Z,36.40
2019-02-16T19:05:55.534Z,35.63
2019-02-16T19:08:39.846Z,32.13
2019-02-16T19:11:12.884Z,34.37
2019-02-16T19:13:39.724Z,35.57
2019-02-16T19:19:03.207Z,42.55
2019-02-16T19:21:46.403Z,33.13
2019-02-16T19:24:29.048Z,33.43
2019-02-16T19:26:55.931Z,39.57
2019-02-16T19:29:24.591Z,38.90
2019-02-16T19:34:30.861Z,37.63
2019-02-16T19:37:01.694Z,40.20
2019-02-16T19:39:31.531Z,40.50
2019-02-16T19:42:04.452Z,39.23
2019-02-16T19:47:25.115Z,47.58
2019-02-16T19:50:02.808Z,36.57
2019-02-16T19:52:35.386Z,35.30
2019-02-16T19:55:02.245Z,39.43
2019-02-16T19:57:31.929Z,42.80
2019-02-16T20:00:18.184Z,39.43
2019-02-16T20:02:44.878Z,40.57
2019-02-16T20:08:19.686Z,47.30
2019-02-16T20:10:52.446Z,38.80
2019-02-16T20:13:21.300Z,37.53
2019-02-16T20:15:51.831Z,36.77
2019-02-16T20:18:18.877Z,35.30
2019-02-16T20:20:50.734Z,36.43
2019-02-16T20:23:18.911Z,39.00
2019-02-16T20:28:41.880Z,45.83
2019-02-16T20:31:10.978Z,37.77
2019-02-16T20:33:38.023Z,33.00
2019-02-16T20:36:05.686Z,37.50
2019-02-16T20:38:33.347Z,38.70
2019-02-16T20:41:01.114Z,36.90
2019-02-16T20:43:28.367Z,30.60
2019-02-16T20:45:55.170Z,31.20
2019-02-16T20:48:28.094Z,28.47
2019-02-16T20:51:00.979Z,38.80
2019-02-16T20:53:45.639Z,31.37
2019-02-16T20:56:13.241Z,34.77
2019-02-16T20:58:39.934Z,34.90
2019-02-16T21:01:20.242Z,30.63
2019-02-16T21:03:49.606Z,34.70
2019-02-16T21:06:22.393Z,31.70
2019-02-16T21:08:55.211Z,26.97
2019-02-16T21:11:24.873Z,33.40
2019-02-16T21:14:03.563Z,30.77
2019-02-16T21:16:36.456Z,32.73
2019-02-16T21:19:19.968Z,32.43
2019-02-16T21:21:59.632Z,26.80
2019-02-16T21:24:32.073Z,28.90
2019-02-16T21:27:02.901Z,27.70
2019-02-16T21:29:33.612Z,29.23
2019-02-16T21:34:59.365Z,33.90
2019-02-16T21:37:28.864Z,25.80
2019-02-16T21:40:00.559Z,27.33
2019-02-16T21:42:32.552Z,23.93
2019-02-16T21:45:05.395Z,30.43
2019-02-16T21:47:37.005Z,25.17
2019-02-16T21:50:04.769Z,23.20
2019-02-16T21:52:46.466Z,23.53
2019-02-16T21:55:18.233Z,23.70
2019-02-16T21:57:51.206Z,22.27
2019-02-16T22:00:33.619Z,23.53
2019-02-16T22:05:59.495Z,28.27
2019-02-16T22:08:32.335Z,24.10
2019-02-16T22:13:50.595Z,29.08
2019-02-16T22:16:18.049Z,20.97
2019-02-16T22:18:45.971Z,19.20
2019-02-16T22:21:12.764Z,21.73
2019-02-16T22:23:39.504Z,18.30
2019-02-16T22:26:06.195Z,18.73
2019-02-16T22:28:32.836Z,23.83
2019-02-16T22:30:59.572Z,18.40
2019-02-16T22:33:26.240Z,22.17
2019-02-16T22:35:54.774Z,16.73
2019-02-16T22:38:21.615Z,20.57
2019-02-16T22:40:48.301Z,21.53
2019-02-16T22:43:15.000Z,19.03
2019-02-16T22:45:42.577Z,24.83
2019-02-16T22:48:09.630Z,22.80
2019-02-16T22:50:36.317Z,18.60
2019-02-16T22:53:03.040Z,18.40
2019-02-16T22:55:30.505Z,19.20
2019-02-16T22:57:57.910Z,17.73
2019-02-16T23:00:26.950Z,19.90
2019-02-16T23:02:53.852Z,16.57
2019-02-16T23:05:20.630Z,21.37
2019-02-16T23:07:48.200Z,17.40
2019-02-16T23:10:14.902Z,17.60
2019-02-16T23:12:41.803Z,19.90
2019-02-16T23:15:08.523Z,20.27
2019-02-16T23:17:36.004Z,17.27
2019-02-16T23:20:03.515Z,16.50
2019-02-16T23:22:30.287Z,19.03
2019-02-16T23:24:57.035Z,19.27
2019-02-16T23:27:24.456Z,18.27
2019-02-16T23:29:51.174Z,18.53
2019-02-16T23:32:18.613Z,19.00
2019-02-16T23:34:45.324Z,16.73
2019-02-16T23:37:13.643Z,15.50
2019-02-16T23:39:40.407Z,16.77
2019-02-16T23:42:07.102Z,14.37
2019-02-16T23:44:35.933Z,14.07
2019-02-16T23:47:02.710Z,17.17
2019-02-16T23:49:29.406Z,16.47
2019-02-16T23:51:56.138Z,13.60
2019-02-16T23:54:23.802Z,17.03
2019-02-16T23:56:50.464Z,19.43
2019-02-16T23:59:18.384Z,15.43
